Delta Virtual Airport Information Service

Key West International Airport

ICAO: KEYW Country: United States
Latitude: 24.5561 Longitude: -81.7595
Latest Arrival : DAL1073 (1A) (KATL-KEYW) Latest Departure : RPA4396 (1B) (KEYW-KMIA)


WX CaptureLIVE
Data provided by noaa.gov | Fetched at 04:59:34

METAR : KEYW 030953Z AUTO 03004KT 10SM CLR 19/19 A3008 RMK AO2 SLP185 T01940189

TAF : KEYW 030904Z 0309/0406 02005KT P6SM SKC FM031400 05009KT P6SM FEW035 SCT250


Runway Data for KEYW
Data provided by openaviationdata.com

Runway ID Mag Var Hdg Length Elevation Surface ILS Freq ILS Id ILS Slope
9 -3 92° 4797 ft 3 ft Asphalt -- -- --
27 -3 272° 4797 ft 3 ft Asphalt -- -- --

Key West International Airport, United States
Use only for reference purposes



Not for navigational purposes.